sensor_id;sensor_type;location;lat;lon;timestamp;P1;durP1;ratioP1;P2;durP2;ratioP2
14118;SDS011;7138;49.246;9.100;2024-02-21T00:01:47;17.17;;;6.07;;
14118;SDS011;7138;49.246;9.100;2024-02-21T00:04:13;12.90;;;5.43;;
14118;SDS011;7138;49.246;9.100;2024-02-21T00:06:40;16.15;;;5.85;;
14118;SDS011;7138;49.246;9.100;2024-02-21T00:09:06;14.52;;;5.35;;
14118;SDS011;7138;49.246;9.100;2024-02-21T00:11:34;18.70;;;5.38;;
14118;SDS011;7138;49.246;9.100;2024-02-21T00:14:00;12.60;;;5.25;;
14118;SDS011;7138;49.246;9.100;2024-02-21T00:16:26;13.65;;;5.10;;
14118;SDS011;7138;49.246;9.100;2024-02-21T00:18:52;15.45;;;5.57;;
14118;SDS011;7138;49.246;9.100;2024-02-21T00:21:17;12.95;;;5.53;;
14118;SDS011;7138;49.246;9.100;2024-02-21T00:23:44;14.93;;;5.82;;
14118;SDS011;7138;49.246;9.100;2024-02-21T00:26:15;14.95;;;4.97;;
14118;SDS011;7138;49.246;9.100;2024-02-21T00:28:41;13.65;;;5.22;;
14118;SDS011;7138;49.246;9.100;2024-02-21T00:31:07;14.48;;;4.57;;
14118;SDS011;7138;49.246;9.100;2024-02-21T00:33:33;13.75;;;5.07;;
14118;SDS011;7138;49.246;9.100;2024-02-21T00:35:59;13.15;;;5.25;;
14118;SDS011;7138;49.246;9.100;2024-02-21T00:38:25;12.88;;;5.32;;
14118;SDS011;7138;49.246;9.100;2024-02-21T00:40:52;14.10;;;5.32;;
14118;SDS011;7138;49.246;9.100;2024-02-21T00:43:17;15.48;;;4.88;;
14118;SDS011;7138;49.246;9.100;2024-02-21T00:45:43;13.90;;;5.25;;
14118;SDS011;7138;49.246;9.100;2024-02-21T00:48:10;13.55;;;5.22;;
14118;SDS011;7138;49.246;9.100;2024-02-21T00:50:35;14.25;;;4.82;;
14118;SDS011;7138;49.246;9.100;2024-02-21T00:53:02;13.95;;;4.70;;
14118;SDS011;7138;49.246;9.100;2024-02-21T00:55:29;13.45;;;5.05;;
14118;SDS011;7138;49.246;9.100;2024-02-21T00:57:56;13.63;;;5.25;;
14118;SDS011;7138;49.246;9.100;2024-02-21T01:00:22;18.35;;;5.75;;
14118;SDS011;7138;49.246;9.100;2024-02-21T01:02:48;11.40;;;4.95;;
14118;SDS011;7138;49.246;9.100;2024-02-21T01:05:14;10.00;;;4.68;;
14118;SDS011;7138;49.246;9.100;2024-02-21T01:07:39;14.00;;;4.55;;
14118;SDS011;7138;49.246;9.100;2024-02-21T01:10:06;11.32;;;4.43;;
14118;SDS011;7138;49.246;9.100;2024-02-21T01:12:33;11.68;;;4.60;;
14118;SDS011;7138;49.246;9.100;2024-02-21T01:15:01;13.30;;;4.88;;
14118;SDS011;7138;49.246;9.100;2024-02-21T01:17:27;14.30;;;4.72;;
14118;SDS011;7138;49.246;9.100;2024-02-21T01:19:53;12.43;;;4.63;;
14118;SDS011;7138;49.246;9.100;2024-02-21T01:22:18;11.55;;;4.28;;
14118;SDS011;7138;49.246;9.100;2024-02-21T01:24:44;12.90;;;4.63;;
14118;SDS011;7138;49.246;9.100;2024-02-21T01:27:10;10.93;;;4.55;;
14118;SDS011;7138;49.246;9.100;2024-02-21T01:29:36;12.32;;;4.13;;
14118;SDS011;7138;49.246;9.100;2024-02-21T01:32:04;13.57;;;4.80;;
14118;SDS011;7138;49.246;9.100;2024-02-21T01:34:31;12.48;;;4.38;;
14118;SDS011;7138;49.246;9.100;2024-02-21T01:36:56;14.65;;;4.72;;
14118;SDS011;7138;49.246;9.100;2024-02-21T01:39:22;11.52;;;5.13;;
14118;SDS011;7138;49.246;9.100;2024-02-21T01:41:48;13.85;;;4.95;;
14118;SDS011;7138;49.246;9.100;2024-02-21T01:44:14;10.23;;;4.85;;
14118;SDS011;7138;49.246;9.100;2024-02-21T01:46:40;11.73;;;4.68;;
14118;SDS011;7138;49.246;9.100;2024-02-21T01:49:07;14.70;;;4.63;;
14118;SDS011;7138;49.246;9.100;2024-02-21T01:51:33;12.52;;;5.07;;
14118;SDS011;7138;49.246;9.100;2024-02-21T01:54:01;12.70;;;5.15;;
14118;SDS011;7138;49.246;9.100;2024-02-21T01:56:27;12.98;;;5.15;;
14118;SDS011;7138;49.246;9.100;2024-02-21T01:58:53;16.60;;;5.45;;
14118;SDS011;7138;49.246;9.100;2024-02-21T02:01:20;12.35;;;4.47;;
14118;SDS011;7138;49.246;9.100;2024-02-21T02:03:46;12.95;;;5.07;;
14118;SDS011;7138;49.246;9.100;2024-02-21T02:06:15;12.50;;;5.00;;
14118;SDS011;7138;49.246;9.100;2024-02-21T02:08:41;11.43;;;4.85;;
14118;SDS011;7138;49.246;9.100;2024-02-21T02:11:07;13.88;;;4.97;;
14118;SDS011;7138;49.246;9.100;2024-02-21T02:13:33;13.85;;;5.13;;
14118;SDS011;7138;49.246;9.100;2024-02-21T02:15:59;14.63;;;5.05;;
14118;SDS011;7138;49.246;9.100;2024-02-21T02:18:25;14.82;;;4.28;;
14118;SDS011;7138;49.246;9.100;2024-02-21T02:20:51;12.40;;;4.80;;
14118;SDS011;7138;49.246;9.100;2024-02-21T02:23:21;12.23;;;4.95;;
14118;SDS011;7138;49.246;9.100;2024-02-21T02:25:49;13.30;;;5.35;;
14118;SDS011;7138;49.246;9.100;2024-02-21T02:28:19;8.82;;;3.97;;
14118;SDS011;7138;49.246;9.100;2024-02-21T02:30:46;13.60;;;4.68;;
14118;SDS011;7138;49.246;9.100;2024-02-21T02:33:12;11.40;;;5.20;;
14118;SDS011;7138;49.246;9.100;2024-02-21T02:35:38;11.85;;;4.43;;
14118;SDS011;7138;49.246;9.100;2024-02-21T02:38:04;12.23;;;4.78;;
14118;SDS011;7138;49.246;9.100;2024-02-21T02:40:33;10.27;;;5.03;;
14118;SDS011;7138;49.246;9.100;2024-02-21T02:42:59;11.95;;;4.72;;
14118;SDS011;7138;49.246;9.100;2024-02-21T02:45:26;17.70;;;4.80;;
14118;SDS011;7138;49.246;9.100;2024-02-21T02:47:52;13.75;;;4.55;;
14118;SDS011;7138;49.246;9.100;2024-02-21T02:50:21;12.65;;;3.88;;
14118;SDS011;7138;49.246;9.100;2024-02-21T02:52:48;10.52;;;4.32;;
14118;SDS011;7138;49.246;9.100;2024-02-21T02:55:13;13.00;;;4.28;;
14118;SDS011;7138;49.246;9.100;2024-02-21T02:57:41;13.00;;;4.70;;
14118;SDS011;7138;49.246;9.100;2024-02-21T03:00:07;12.18;;;4.55;;
14118;SDS011;7138;49.246;9.100;2024-02-21T03:02:37;14.23;;;5.45;;
14118;SDS011;7138;49.246;9.100;2024-02-21T03:05:11;14.18;;;5.18;;
14118;SDS011;7138;49.246;9.100;2024-02-21T03:07:39;14.00;;;5.13;;
14118;SDS011;7138;49.246;9.100;2024-02-21T03:10:05;16.80;;;7.07;;
14118;SDS011;7138;49.246;9.100;2024-02-21T03:12:32;11.07;;;5.05;;
14118;SDS011;7138;49.246;9.100;2024-02-21T03:14:59;12.90;;;4.82;;
14118;SDS011;7138;49.246;9.100;2024-02-21T03:17:25;15.40;;;5.18;;
14118;SDS011;7138;49.246;9.100;2024-02-21T03:19:54;14.43;;;4.80;;
14118;SDS011;7138;49.246;9.100;2024-02-21T03:22:24;11.50;;;4.35;;
14118;SDS011;7138;49.246;9.100;2024-02-21T03:24:50;11.05;;;3.97;;
14118;SDS011;7138;49.246;9.100;2024-02-21T03:27:16;13.45;;;4.20;;
14118;SDS011;7138;49.246;9.100;2024-02-21T03:29:42;12.35;;;3.70;;
14118;SDS011;7138;49.246;9.100;2024-02-21T03:32:10;11.45;;;4.13;;
14118;SDS011;7138;49.246;9.100;2024-02-21T03:34:35;10.80;;;3.58;;
14118;SDS011;7138;49.246;9.100;2024-02-21T03:37:01;11.93;;;4.03;;
14118;SDS011;7138;49.246;9.100;2024-02-21T03:39:30;10.63;;;4.10;;
14118;SDS011;7138;49.246;9.100;2024-02-21T03:41:57;13.45;;;3.95;;
14118;SDS011;7138;49.246;9.100;2024-02-21T03:44:23;11.10;;;3.80;;
14118;SDS011;7138;49.246;9.100;2024-02-21T03:46:48;11.05;;;4.03;;
14118;SDS011;7138;49.246;9.100;2024-02-21T03:49:16;11.80;;;3.85;;
14118;SDS011;7138;49.246;9.100;2024-02-21T03:51:43;8.98;;;4.00;;
14118;SDS011;7138;49.246;9.100;2024-02-21T03:54:11;12.23;;;3.92;;
14118;SDS011;7138;49.246;9.100;2024-02-21T03:56:37;11.70;;;4.10;;
14118;SDS011;7138;49.246;9.100;2024-02-21T03:59:04;9.95;;;3.40;;
14118;SDS011;7138;49.246;9.100;2024-02-21T04:01:31;13.05;;;3.85;;
14118;SDS011;7138;49.246;9.100;2024-02-21T04:03:57;15.25;;;4.22;;
14118;SDS011;7138;49.246;9.100;2024-02-21T04:06:24;12.60;;;3.92;;
14118;SDS011;7138;49.246;9.100;2024-02-21T04:08:50;11.05;;;4.18;;
14118;SDS011;7138;49.246;9.100;2024-02-21T04:11:16;9.35;;;3.67;;
14118;SDS011;7138;49.246;9.100;2024-02-21T04:13:43;11.57;;;3.92;;
14118;SDS011;7138;49.246;9.100;2024-02-21T04:16:09;12.60;;;3.72;;
14118;SDS011;7138;49.246;9.100;2024-02-21T04:18:35;13.45;;;4.20;;
14118;SDS011;7138;49.246;9.100;2024-02-21T04:21:01;10.35;;;3.75;;
14118;SDS011;7138;49.246;9.100;2024-02-21T04:23:28;11.85;;;3.60;;
14118;SDS011;7138;49.246;9.100;2024-02-21T04:25:54;9.15;;;3.50;;
14118;SDS011;7138;49.246;9.100;2024-02-21T04:28:20;8.77;;;3.50;;
14118;SDS011;7138;49.246;9.100;2024-02-21T04:30:46;12.32;;;3.72;;
14118;SDS011;7138;49.246;9.100;2024-02-21T04:33:11;11.30;;;4.03;;
14118;SDS011;7138;49.246;9.100;2024-02-21T04:35:37;10.60;;;3.75;;
14118;SDS011;7138;49.246;9.100;2024-02-21T04:38:04;9.45;;;3.60;;
14118;SDS011;7138;49.246;9.100;2024-02-21T04:40:31;13.48;;;4.18;;
14118;SDS011;7138;49.246;9.100;2024-02-21T04:42:57;10.02;;;3.53;;
14118;SDS011;7138;49.246;9.100;2024-02-21T04:45:23;11.00;;;3.75;;
14118;SDS011;7138;49.246;9.100;2024-02-21T04:47:49;10.98;;;3.75;;
14118;SDS011;7138;49.246;9.100;2024-02-21T04:50:14;8.43;;;3.92;;
14118;SDS011;7138;49.246;9.100;2024-02-21T04:52:40;11.38;;;4.43;;
14118;SDS011;7138;49.246;9.100;2024-02-21T04:55:06;11.52;;;4.03;;
14118;SDS011;7138;49.246;9.100;2024-02-21T04:57:34;7.80;;;3.45;;
14118;SDS011;7138;49.246;9.100;2024-02-21T05:00:00;8.65;;;3.90;;
14118;SDS011;7138;49.246;9.100;2024-02-21T05:02:26;11.65;;;4.00;;
14118;SDS011;7138;49.246;9.100;2024-02-21T05:04:52;10.20;;;3.75;;
14118;SDS011;7138;49.246;9.100;2024-02-21T05:07:18;12.98;;;3.78;;
14118;SDS011;7138;49.246;9.100;2024-02-21T05:09:44;9.30;;;4.72;;
14118;SDS011;7138;49.246;9.100;2024-02-21T05:12:10;11.82;;;5.80;;
14118;SDS011;7138;49.246;9.100;2024-02-21T05:14:37;10.80;;;4.82;;
14118;SDS011;7138;49.246;9.100;2024-02-21T05:17:03;11.68;;;4.75;;
14118;SDS011;7138;49.246;9.100;2024-02-21T05:19:29;8.52;;;4.28;;
14118;SDS011;7138;49.246;9.100;2024-02-21T05:21:55;13.00;;;4.20;;
14118;SDS011;7138;49.246;9.100;2024-02-21T05:24:21;9.25;;;4.03;;
14118;SDS011;7138;49.246;9.100;2024-02-21T05:26:47;11.70;;;4.63;;
14118;SDS011;7138;49.246;9.100;2024-02-21T05:29:13;9.82;;;5.20;;
14118;SDS011;7138;49.246;9.100;2024-02-21T05:31:55;12.05;;;5.47;;
14118;SDS011;7138;49.246;9.100;2024-02-21T05:34:22;11.35;;;5.50;;
14118;SDS011;7138;49.246;9.100;2024-02-21T05:36:48;14.13;;;5.18;;
14118;SDS011;7138;49.246;9.100;2024-02-21T05:39:17;13.27;;;4.57;;
14118;SDS011;7138;49.246;9.100;2024-02-21T05:41:44;10.13;;;4.82;;
14118;SDS011;7138;49.246;9.100;2024-02-21T05:44:10;12.70;;;5.32;;
14118;SDS011;7138;49.246;9.100;2024-02-21T05:46:36;26.52;;;15.07;;
14118;SDS011;7138;49.246;9.100;2024-02-21T05:49:03;31.13;;;16.88;;
14118;SDS011;7138;49.246;9.100;2024-02-21T05:51:31;19.20;;;8.38;;
14118;SDS011;7138;49.246;9.100;2024-02-21T05:53:58;12.43;;;5.37;;
14118;SDS011;7138;49.246;9.100;2024-02-21T05:56:24;13.80;;;5.07;;
14118;SDS011;7138;49.246;9.100;2024-02-21T05:58:50;12.57;;;4.55;;
14118;SDS011;7138;49.246;9.100;2024-02-21T06:01:16;12.57;;;4.32;;
14118;SDS011;7138;49.246;9.100;2024-02-21T06:03:42;9.90;;;4.15;;
14118;SDS011;7138;49.246;9.100;2024-02-21T06:06:10;10.05;;;3.92;;
14118;SDS011;7138;49.246;9.100;2024-02-21T06:08:35;11.40;;;3.80;;
14118;SDS011;7138;49.246;9.100;2024-02-21T06:11:01;12.45;;;4.15;;
14118;SDS011;7138;49.246;9.100;2024-02-21T06:13:27;11.65;;;4.32;;
14118;SDS011;7138;49.246;9.100;2024-02-21T06:15:53;12.82;;;4.10;;
14118;SDS011;7138;49.246;9.100;2024-02-21T06:18:19;11.18;;;3.97;;
14118;SDS011;7138;49.246;9.100;2024-02-21T06:20:46;10.70;;;3.67;;
14118;SDS011;7138;49.246;9.100;2024-02-21T06:23:14;9.55;;;3.85;;
14118;SDS011;7138;49.246;9.100;2024-02-21T06:25:42;10.88;;;4.38;;
14118;SDS011;7138;49.246;9.100;2024-02-21T06:28:08;10.90;;;3.80;;
14118;SDS011;7138;49.246;9.100;2024-02-21T06:30:34;9.30;;;4.18;;
14118;SDS011;7138;49.246;9.100;2024-02-21T06:33:00;11.60;;;4.30;;
14118;SDS011;7138;49.246;9.100;2024-02-21T06:35:27;13.07;;;4.13;;
14118;SDS011;7138;49.246;9.100;2024-02-21T06:37:53;12.82;;;4.72;;
14118;SDS011;7138;49.246;9.100;2024-02-21T06:40:21;12.32;;;4.32;;
14118;SDS011;7138;49.246;9.100;2024-02-21T06:42:48;13.65;;;4.20;;
14118;SDS011;7138;49.246;9.100;2024-02-21T06:45:14;11.75;;;5.07;;
14118;SDS011;7138;49.246;9.100;2024-02-21T06:47:41;16.92;;;6.85;;
14118;SDS011;7138;49.246;9.100;2024-02-21T06:50:07;16.73;;;6.10;;
14118;SDS011;7138;49.246;9.100;2024-02-21T06:52:34;13.18;;;7.03;;
14118;SDS011;7138;49.246;9.100;2024-02-21T06:55:00;12.23;;;5.30;;
14118;SDS011;7138;49.246;9.100;2024-02-21T06:57:28;12.98;;;4.20;;
14118;SDS011;7138;49.246;9.100;2024-02-21T06:59:54;11.95;;;3.65;;
14118;SDS011;7138;49.246;9.100;2024-02-21T07:02:20;11.02;;;3.75;;
14118;SDS011;7138;49.246;9.100;2024-02-21T07:04:46;9.80;;;3.60;;
14118;SDS011;7138;49.246;9.100;2024-02-21T07:07:12;10.95;;;4.10;;
14118;SDS011;7138;49.246;9.100;2024-02-21T07:09:38;11.20;;;4.40;;
14118;SDS011;7138;49.246;9.100;2024-02-21T07:12:04;10.93;;;3.60;;
14118;SDS011;7138;49.246;9.100;2024-02-21T07:14:33;9.75;;;3.92;;
14118;SDS011;7138;49.246;9.100;2024-02-21T07:16:59;9.82;;;3.53;;
14118;SDS011;7138;49.246;9.100;2024-02-21T07:19:24;8.63;;;3.42;;
14118;SDS011;7138;49.246;9.100;2024-02-21T07:21:50;10.55;;;3.92;;
14118;SDS011;7138;49.246;9.100;2024-02-21T07:24:16;7.97;;;3.70;;
14118;SDS011;7138;49.246;9.100;2024-02-21T07:26:42;9.43;;;3.65;;
14118;SDS011;7138;49.246;9.100;2024-02-21T07:29:08;8.13;;;3.60;;
14118;SDS011;7138;49.246;9.100;2024-02-21T07:31:39;8.77;;;4.07;;
14118;SDS011;7138;49.246;9.100;2024-02-21T07:34:06;7.20;;;3.72;;
14118;SDS011;7138;49.246;9.100;2024-02-21T07:36:32;14.73;;;4.80;;
14118;SDS011;7138;49.246;9.100;2024-02-21T07:38:58;12.55;;;6.07;;
14118;SDS011;7138;49.246;9.100;2024-02-21T07:41:24;20.17;;;7.93;;
14118;SDS011;7138;49.246;9.100;2024-02-21T07:43:50;21.77;;;8.05;;
14118;SDS011;7138;49.246;9.100;2024-02-21T07:46:17;15.02;;;6.68;;
14118;SDS011;7138;49.246;9.100;2024-02-21T07:48:44;13.65;;;6.05;;
14118;SDS011;7138;49.246;9.100;2024-02-21T07:51:10;14.10;;;6.03;;
14118;SDS011;7138;49.246;9.100;2024-02-21T07:53:36;17.85;;;7.20;;
14118;SDS011;7138;49.246;9.100;2024-02-21T07:56:03;14.20;;;5.00;;
14118;SDS011;7138;49.246;9.100;2024-02-21T07:58:30;11.00;;;4.03;;
14118;SDS011;7138;49.246;9.100;2024-02-21T08:00:55;11.00;;;3.50;;
14118;SDS011;7138;49.246;9.100;2024-02-21T08:03:21;12.70;;;3.65;;
14118;SDS011;7138;49.246;9.100;2024-02-21T08:05:49;9.68;;;3.22;;
14118;SDS011;7138;49.246;9.100;2024-02-21T08:08:15;9.20;;;3.15;;
14118;SDS011;7138;49.246;9.100;2024-02-21T08:10:44;10.20;;;3.17;;
14118;SDS011;7138;49.246;9.100;2024-02-21T08:13:10;9.30;;;2.80;;
14118;SDS011;7138;49.246;9.100;2024-02-21T08:15:36;9.02;;;2.95;;
14118;SDS011;7138;49.246;9.100;2024-02-21T08:18:04;9.45;;;2.83;;
14118;SDS011;7138;49.246;9.100;2024-02-21T08:20:30;8.65;;;3.05;;
14118;SDS011;7138;49.246;9.100;2024-02-21T08:22:57;7.97;;;2.83;;
14118;SDS011;7138;49.246;9.100;2024-02-21T08:25:23;9.20;;;2.90;;
14118;SDS011;7138;49.246;9.100;2024-02-21T08:27:49;11.88;;;3.05;;
14118;SDS011;7138;49.246;9.100;2024-02-21T08:30:16;10.40;;;2.95;;
14118;SDS011;7138;49.246;9.100;2024-02-21T08:32:43;8.30;;;2.95;;
14118;SDS011;7138;49.246;9.100;2024-02-21T08:35:09;7.80;;;2.53;;
14118;SDS011;7138;49.246;9.100;2024-02-21T08:37:35;11.05;;;3.17;;
14118;SDS011;7138;49.246;9.100;2024-02-21T08:40:02;8.30;;;2.90;;
14118;SDS011;7138;49.246;9.100;2024-02-21T08:42:33;9.68;;;2.80;;
14118;SDS011;7138;49.246;9.100;2024-02-21T08:44:59;10.63;;;2.60;;
14118;SDS011;7138;49.246;9.100;2024-02-21T08:47:25;11.30;;;2.30;;
14118;SDS011;7138;49.246;9.100;2024-02-21T08:49:50;7.53;;;2.55;;
14118;SDS011;7138;49.246;9.100;2024-02-21T08:52:16;9.00;;;2.50;;
14118;SDS011;7138;49.246;9.100;2024-02-21T08:54:42;9.45;;;2.72;;
14118;SDS011;7138;49.246;9.100;2024-02-21T08:57:09;9.48;;;2.50;;
14118;SDS011;7138;49.246;9.100;2024-02-21T08:59:35;9.18;;;2.63;;
14118;SDS011;7138;49.246;9.100;2024-02-21T09:02:01;8.30;;;2.50;;
14118;SDS011;7138;49.246;9.100;2024-02-21T09:04:28;8.80;;;2.60;;
14118;SDS011;7138;49.246;9.100;2024-02-21T09:06:54;7.90;;;2.10;;
14118;SDS011;7138;49.246;9.100;2024-02-21T09:09:20;8.32;;;2.40;;
14118;SDS011;7138;49.246;9.100;2024-02-21T09:11:46;11.38;;;2.75;;
14118;SDS011;7138;49.246;9.100;2024-02-21T09:14:13;8.88;;;2.47;;
14118;SDS011;7138;49.246;9.100;2024-02-21T09:16:39;9.50;;;2.60;;
14118;SDS011;7138;49.246;9.100;2024-02-21T09:19:04;9.88;;;2.25;;
14118;SDS011;7138;49.246;9.100;2024-02-21T09:21:30;9.98;;;2.55;;
14118;SDS011;7138;49.246;9.100;2024-02-21T09:23:56;8.13;;;2.47;;
14118;SDS011;7138;49.246;9.100;2024-02-21T09:26:22;8.98;;;2.38;;
14118;SDS011;7138;49.246;9.100;2024-02-21T09:28:48;9.93;;;2.60;;
14118;SDS011;7138;49.246;9.100;2024-02-21T09:31:15;12.65;;;2.92;;
14118;SDS011;7138;49.246;9.100;2024-02-21T09:33:40;10.70;;;2.42;;
14118;SDS011;7138;49.246;9.100;2024-02-21T09:36:06;11.23;;;2.63;;
14118;SDS011;7138;49.246;9.100;2024-02-21T09:38:32;10.18;;;2.85;;
14118;SDS011;7138;49.246;9.100;2024-02-21T09:40:58;8.35;;;2.42;;
14118;SDS011;7138;49.246;9.100;2024-02-21T09:43:31;7.00;;;2.38;;
14118;SDS011;7138;49.246;9.100;2024-02-21T09:46:00;9.45;;;2.25;;
14118;SDS011;7138;49.246;9.100;2024-02-21T09:48:33;10.45;;;2.35;;
14118;SDS011;7138;49.246;9.100;2024-02-21T09:51:20;8.32;;;2.47;;
14118;SDS011;7138;49.246;9.100;2024-02-21T09:53:47;9.73;;;2.75;;
14118;SDS011;7138;49.246;9.100;2024-02-21T09:56:15;9.00;;;2.97;;
14118;SDS011;7138;49.246;9.100;2024-02-21T09:58:40;11.27;;;2.38;;
14118;SDS011;7138;49.246;9.100;2024-02-21T10:01:07;7.90;;;2.20;;
14118;SDS011;7138;49.246;9.100;2024-02-21T10:03:35;10.43;;;3.03;;
14118;SDS011;7138;49.246;9.100;2024-02-21T10:06:00;10.82;;;2.50;;
14118;SDS011;7138;49.246;9.100;2024-02-21T10:08:27;11.15;;;2.47;;
14118;SDS011;7138;49.246;9.100;2024-02-21T10:10:53;7.55;;;2.45;;
14118;SDS011;7138;49.246;9.100;2024-02-21T10:13:24;11.38;;;2.63;;
14118;SDS011;7138;49.246;9.100;2024-02-21T10:16:00;7.43;;;2.35;;
14118;SDS011;7138;49.246;9.100;2024-02-21T10:18:30;11.57;;;2.75;;
14118;SDS011;7138;49.246;9.100;2024-02-21T10:21:01;10.80;;;2.70;;
14118;SDS011;7138;49.246;9.100;2024-02-21T10:23:29;8.60;;;2.35;;
14118;SDS011;7138;49.246;9.100;2024-02-21T10:26:05;11.15;;;2.67;;
14118;SDS011;7138;49.246;9.100;2024-02-21T10:28:32;9.18;;;2.55;;
14118;SDS011;7138;49.246;9.100;2024-02-21T10:30:58;8.68;;;2.50;;
14118;SDS011;7138;49.246;9.100;2024-02-21T10:33:23;7.20;;;2.28;;
14118;SDS011;7138;49.246;9.100;2024-02-21T10:35:52;7.05;;;2.40;;
14118;SDS011;7138;49.246;9.100;2024-02-21T10:38:20;7.45;;;2.30;;
14118;SDS011;7138;49.246;9.100;2024-02-21T10:40:46;7.72;;;2.30;;
14118;SDS011;7138;49.246;9.100;2024-02-21T10:43:14;7.43;;;2.40;;
14118;SDS011;7138;49.246;9.100;2024-02-21T10:45:44;9.45;;;2.30;;
14118;SDS011;7138;49.246;9.100;2024-02-21T10:48:13;12.95;;;2.40;;
14118;SDS011;7138;49.246;9.100;2024-02-21T10:50:46;8.10;;;2.17;;
14118;SDS011;7138;49.246;9.100;2024-02-21T10:53:32;9.57;;;2.33;;
14118;SDS011;7138;49.246;9.100;2024-02-21T10:56:10;8.20;;;2.10;;
14118;SDS011;7138;49.246;9.100;2024-02-21T10:58:46;8.02;;;2.28;;
14118;SDS011;7138;49.246;9.100;2024-02-21T11:01:13;7.93;;;2.13;;
14118;SDS011;7138;49.246;9.100;2024-02-21T11:03:43;9.48;;;2.45;;
14118;SDS011;7138;49.246;9.100;2024-02-21T11:06:11;7.85;;;2.53;;
14118;SDS011;7138;49.246;9.100;2024-02-21T11:08:41;7.35;;;2.08;;
14118;SDS011;7138;49.246;9.100;2024-02-21T11:11:07;7.93;;;2.30;;
14118;SDS011;7138;49.246;9.100;2024-02-21T11:13:35;7.72;;;2.40;;
14118;SDS011;7138;49.246;9.100;2024-02-21T11:16:05;7.80;;;2.10;;
14118;SDS011;7138;49.246;9.100;2024-02-21T11:18:36;8.13;;;2.22;;
14118;SDS011;7138;49.246;9.100;2024-02-21T11:21:02;11.00;;;2.65;;
14118;SDS011;7138;49.246;9.100;2024-02-21T11:23:29;8.10;;;2.58;;
14118;SDS011;7138;49.246;9.100;2024-02-21T11:26:05;8.38;;;2.40;;
14118;SDS011;7138;49.246;9.100;2024-02-21T11:28:32;7.13;;;2.17;;
14118;SDS011;7138;49.246;9.100;2024-02-21T11:31:06;9.40;;;2.35;;
14118;SDS011;7138;49.246;9.100;2024-02-21T11:33:33;8.75;;;2.60;;
14118;SDS011;7138;49.246;9.100;2024-02-21T11:36:00;8.18;;;2.33;;
14118;SDS011;7138;49.246;9.100;2024-02-21T11:38:25;8.05;;;2.35;;
14118;SDS011;7138;49.246;9.100;2024-02-21T11:40:51;9.02;;;2.75;;
14118;SDS011;7138;49.246;9.100;2024-02-21T11:43:18;10.57;;;2.65;;
14118;SDS011;7138;49.246;9.100;2024-02-21T11:45:45;8.05;;;2.70;;
14118;SDS011;7138;49.246;9.100;2024-02-21T11:48:11;5.95;;;2.22;;
14118;SDS011;7138;49.246;9.100;2024-02-21T11:50:37;11.80;;;2.80;;
14118;SDS011;7138;49.246;9.100;2024-02-21T11:53:04;8.77;;;2.30;;
14118;SDS011;7138;49.246;9.100;2024-02-21T11:55:30;9.02;;;2.60;;
14118;SDS011;7138;49.246;9.100;2024-02-21T11:57:56;10.43;;;2.53;;
14118;SDS011;7138;49.246;9.100;2024-02-21T12:00:25;9.23;;;2.70;;
14118;SDS011;7138;49.246;9.100;2024-02-21T12:02:51;8.10;;;2.47;;
14118;SDS011;7138;49.246;9.100;2024-02-21T12:05:18;8.15;;;2.22;;
14118;SDS011;7138;49.246;9.100;2024-02-21T12:07:45;11.02;;;2.42;;
14118;SDS011;7138;49.246;9.100;2024-02-21T12:10:11;9.18;;;2.45;;
14118;SDS011;7138;49.246;9.100;2024-02-21T12:12:38;11.23;;;2.78;;
14118;SDS011;7138;49.246;9.100;2024-02-21T12:15:05;7.55;;;1.92;;
14118;SDS011;7138;49.246;9.100;2024-02-21T12:17:34;9.43;;;2.60;;
14118;SDS011;7138;49.246;9.100;2024-02-21T12:20:01;8.68;;;2.20;;
14118;SDS011;7138;49.246;9.100;2024-02-21T12:22:29;11.10;;;2.70;;
14118;SDS011;7138;49.246;9.100;2024-02-21T12:24:57;7.93;;;2.40;;
14118;SDS011;7138;49.246;9.100;2024-02-21T12:27:23;8.88;;;2.20;;
14118;SDS011;7138;49.246;9.100;2024-02-21T12:29:50;7.30;;;2.00;;
14118;SDS011;7138;49.246;9.100;2024-02-21T12:32:15;10.57;;;2.30;;
14118;SDS011;7138;49.246;9.100;2024-02-21T12:34:43;9.05;;;2.35;;
14118;SDS011;7138;49.246;9.100;2024-02-21T12:37:08;9.52;;;2.08;;
14118;SDS011;7138;49.246;9.100;2024-02-21T12:39:38;10.90;;;2.50;;
14118;SDS011;7138;49.246;9.100;2024-02-21T12:42:03;7.35;;;2.13;;
14118;SDS011;7138;49.246;9.100;2024-02-21T12:44:29;7.90;;;2.20;;
14118;SDS011;7138;49.246;9.100;2024-02-21T12:46:55;7.18;;;1.92;;
14118;SDS011;7138;49.246;9.100;2024-02-21T12:49:21;6.78;;;2.10;;
14118;SDS011;7138;49.246;9.100;2024-02-21T12:51:48;10.30;;;1.90;;
14118;SDS011;7138;49.246;9.100;2024-02-21T12:54:14;8.07;;;1.92;;
14118;SDS011;7138;49.246;9.100;2024-02-21T12:56:40;6.32;;;2.20;;
14118;SDS011;7138;49.246;9.100;2024-02-21T12:59:06;7.65;;;2.00;;
14118;SDS011;7138;49.246;9.100;2024-02-21T13:01:35;9.15;;;2.30;;
14118;SDS011;7138;49.246;9.100;2024-02-21T13:04:01;8.00;;;1.92;;
14118;SDS011;7138;49.246;9.100;2024-02-21T13:06:28;7.63;;;2.50;;
14118;SDS011;7138;49.246;9.100;2024-02-21T13:08:55;8.00;;;2.10;;
14118;SDS011;7138;49.246;9.100;2024-02-21T13:11:21;7.80;;;2.40;;
14118;SDS011;7138;49.246;9.100;2024-02-21T13:13:47;8.30;;;2.10;;
14118;SDS011;7138;49.246;9.100;2024-02-21T13:16:13;5.93;;;1.67;;
14118;SDS011;7138;49.246;9.100;2024-02-21T13:18:39;7.80;;;2.00;;
14118;SDS011;7138;49.246;9.100;2024-02-21T13:21:07;8.30;;;2.15;;
14118;SDS011;7138;49.246;9.100;2024-02-21T13:23:33;9.13;;;2.03;;
14118;SDS011;7138;49.246;9.100;2024-02-21T13:26:00;6.28;;;1.92;;
14118;SDS011;7138;49.246;9.100;2024-02-21T13:28:26;7.18;;;1.80;;
14118;SDS011;7138;49.246;9.100;2024-02-21T13:30:52;6.82;;;2.03;;
14118;SDS011;7138;49.246;9.100;2024-02-21T13:33:18;10.48;;;2.30;;
14118;SDS011;7138;49.246;9.100;2024-02-21T13:35:44;7.57;;;2.03;;
14118;SDS011;7138;49.246;9.100;2024-02-21T13:38:10;9.43;;;1.75;;
14118;SDS011;7138;49.246;9.100;2024-02-21T13:40:36;6.05;;;1.92;;
14118;SDS011;7138;49.246;9.100;2024-02-21T13:43:03;8.82;;;2.10;;
14118;SDS011;7138;49.246;9.100;2024-02-21T13:45:29;7.40;;;2.38;;
14118;SDS011;7138;49.246;9.100;2024-02-21T13:47:56;8.85;;;1.92;;
14118;SDS011;7138;49.246;9.100;2024-02-21T13:50:25;6.15;;;1.92;;
14118;SDS011;7138;49.246;9.100;2024-02-21T13:52:56;6.97;;;1.98;;
14118;SDS011;7138;49.246;9.100;2024-02-21T13:55:22;5.47;;;1.63;;
14118;SDS011;7138;49.246;9.100;2024-02-21T13:57:51;6.13;;;1.63;;
14118;SDS011;7138;49.246;9.100;2024-02-21T14:00:18;6.15;;;1.80;;
14118;SDS011;7138;49.246;9.100;2024-02-21T14:02:45;6.28;;;1.70;;
14118;SDS011;7138;49.246;9.100;2024-02-21T14:05:11;8.07;;;1.70;;
14118;SDS011;7138;49.246;9.100;2024-02-21T14:07:38;4.35;;;1.45;;
14118;SDS011;7138;49.246;9.100;2024-02-21T14:10:04;6.10;;;1.88;;
14118;SDS011;7138;49.246;9.100;2024-02-21T14:12:31;5.78;;;2.00;;
14118;SDS011;7138;49.246;9.100;2024-02-21T14:14:57;8.60;;;1.95;;
14118;SDS011;7138;49.246;9.100;2024-02-21T14:17:24;6.18;;;1.92;;
14118;SDS011;7138;49.246;9.100;2024-02-21T14:19:50;6.70;;;1.77;;
14118;SDS011;7138;49.246;9.100;2024-02-21T14:22:16;7.45;;;1.95;;
14118;SDS011;7138;49.246;9.100;2024-02-21T14:24:42;7.72;;;1.92;;
14118;SDS011;7138;49.246;9.100;2024-02-21T14:27:08;5.25;;;1.77;;
14118;SDS011;7138;49.246;9.100;2024-02-21T14:29:34;6.68;;;1.77;;
14118;SDS011;7138;49.246;9.100;2024-02-21T14:32:00;6.03;;;1.90;;
14118;SDS011;7138;49.246;9.100;2024-02-21T14:34:27;7.15;;;1.98;;
14118;SDS011;7138;49.246;9.100;2024-02-21T14:36:53;8.23;;;2.47;;
14118;SDS011;7138;49.246;9.100;2024-02-21T14:39:19;6.78;;;2.08;;
14118;SDS011;7138;49.246;9.100;2024-02-21T14:41:45;7.63;;;2.50;;
14118;SDS011;7138;49.246;9.100;2024-02-21T14:44:10;6.95;;;1.92;;
14118;SDS011;7138;49.246;9.100;2024-02-21T14:46:36;8.10;;;2.08;;
14118;SDS011;7138;49.246;9.100;2024-02-21T14:49:03;6.45;;;1.70;;
14118;SDS011;7138;49.246;9.100;2024-02-21T14:51:30;8.00;;;1.92;;